CMA-CGM Fort Saint Pierre — FQFM — position and weather

sailwx.info

Track history (hours):
 
Tides and Currents Weather Stations Pressure Air Temp Water Temp Dewpoint Dewpoint Depression Visibility Wind Speed Wind Dir Waves Ship Positions

CMA-CGM Fort Saint Pierre

Last reported at 2014-Sep-19 06:04 UTC. Time now 2014-Sep-20 08:01 UTC.
Position N 40°06' W 024°39'.

Length 197 m; beam 30 m.

Type: Ship (hazmat cat A). MMSI: 226328000.

Date/timePositionNaut miles runAvg speedWind from/ knotsBaromVisibWave heightAir tempDewpointWater temp
2014-Sep-19 06:04N 40°06' W 024°39'1019.5
2014-Sep-19 05:33N 39°60' W 024°50'2019.7
2014-Sep-19 04:33N 39°47' W 025°09'2019.6
2014-Sep-19 03:32N 39°34' W 025°28'3919.6
2014-Sep-19 01:32N 39°08' W 026°07'2019.5
2014-Sep-19 00:32N 38°55' W 026°26'1919.3
2014-Sep-18 23:33N 38°43' W 026°44'1919.5
2014-Sep-18 22:34N 38°30' W 027°03'2019.6
2014-Sep-18 21:33N 38°17' W 027°21'2019.7
2014-Sep-18 20:34N 38°03' W 027°39'2020.2
2014-Sep-18 19:33N 37°49' W 027°58'2020.1
2014-Sep-18 18:33N 37°36' W 028°16'2020.2
2014-Sep-18 17:33N 37°22' W 028°35'2020.0
2014-Sep-18 16:33N 37°08' W 028°53'2019.8
2014-Sep-18 15:34N 36°55' W 029°11'2019.7
2014-Sep-18 14:33N 36°41' W 029°29'2019.8
2014-Sep-18 13:33N 36°27' W 029°47'  
2014-Sep-14 01:17N 16°10' W 061°31'4 0.7
2014-Sep-13 19:20N 16°14' W 061°33'0 0.0
2014-Sep-13 18:17N 16°14' W 061°33'0 0.0
2014-Sep-13 17:32N 16°14' W 061°33'0 0.0
2014-Sep-13 14:17N 16°14' W 061°33'0 0.0
2014-Sep-13 13:05N 16°14' W 061°33'0 0.0
2014-Sep-13 11:26N 16°14' W 061°33'0 0.0
2014-Sep-13 10:25N 16°14' W 061°33'5 5.6
2014-Sep-13 09:33N 16°10' W 061°30'  
2014-Sep-10 03:12N 15°28' W 061°32'6 9.5
2014-Sep-10 02:33N 15°34' W 061°34'3410.0
2014-Sep-09 23:08N 16°07' W 061°30'5 9.2
2014-Sep-09 22:33N 16°12' W 061°32'  
Track history (hours):
 
Tides and Currents Weather Stations Pressure Air Temp Water Temp Dewpoint Dewpoint Depression Visibility Wind Speed Wind Dir Waves Ship Positions

CMA-CGM Fort Saint Pierre

Last reported at 2014-Sep-19 06:04 UTC. Time now 2014-Sep-20 08:01 UTC.
Position N 40°06' W 024°39'.

Length 197 m; beam 30 m.

Type: Ship (hazmat cat A). MMSI: 226328000.

Date/timePositionNaut miles runAvg speedWind from/ knotsBaromVisibWave heightAir tempDewpointWater temp
2014-Sep-19 06:04N 40°06' W 024°39'1019.5
2014-Sep-19 05:33N 39°60' W 024°50'2019.7
2014-Sep-19 04:33N 39°47' W 025°09'2019.6
2014-Sep-19 03:32N 39°34' W 025°28'3919.6
2014-Sep-19 01:32N 39°08' W 026°07'2019.5
2014-Sep-19 00:32N 38°55' W 026°26'1919.3
2014-Sep-18 23:33N 38°43' W 026°44'1919.5
2014-Sep-18 22:34N 38°30' W 027°03'2019.6
2014-Sep-18 21:33N 38°17' W 027°21'2019.7
2014-Sep-18 20:34N 38°03' W 027°39'2020.2
2014-Sep-18 19:33N 37°49' W 027°58'2020.1
2014-Sep-18 18:33N 37°36' W 028°16'2020.2
2014-Sep-18 17:33N 37°22' W 028°35'2020.0
2014-Sep-18 16:33N 37°08' W 028°53'2019.8
2014-Sep-18 15:34N 36°55' W 029°11'2019.7
2014-Sep-18 14:33N 36°41' W 029°29'2019.8
2014-Sep-18 13:33N 36°27' W 029°47'  
2014-Sep-14 01:17N 16°10' W 061°31'4 0.7
2014-Sep-13 19:20N 16°14' W 061°33'0 0.0
2014-Sep-13 18:17N 16°14' W 061°33'0 0.0
2014-Sep-13 17:32N 16°14' W 061°33'0 0.0
2014-Sep-13 14:17N 16°14' W 061°33'0 0.0
2014-Sep-13 13:05N 16°14' W 061°33'0 0.0
2014-Sep-13 11:26N 16°14' W 061°33'0 0.0
2014-Sep-13 10:25N 16°14' W 061°33'5 5.6
2014-Sep-13 09:33N 16°10' W 061°30'  
2014-Sep-10 03:12N 15°28' W 061°32'6 9.5
2014-Sep-10 02:33N 15°34' W 061°34'3410.0
2014-Sep-09 23:08N 16°07' W 061°30'5 9.2
2014-Sep-09 22:33N 16°12' W 061°32'  

Dump ship's entire track history